sensor_id;sensor_type;location;lat;lon;timestamp;temperature;humidity
39875;DHT22;25547;52.530;13.194;2023-03-23T00:01:30;12.50;99.00
39875;DHT22;25547;52.530;13.194;2023-03-23T00:03:57;12.50;99.20
39875;DHT22;25547;52.530;13.194;2023-03-23T00:06:26;12.50;99.20
39875;DHT22;25547;52.530;13.194;2023-03-23T00:08:54;12.50;99.30
39875;DHT22;25547;52.530;13.194;2023-03-23T00:11:28;12.50;99.20
39875;DHT22;25547;52.530;13.194;2023-03-23T00:13:58;12.60;99.40
39875;DHT22;25547;52.530;13.194;2023-03-23T00:16:28;12.50;99.50
39875;DHT22;25547;52.530;13.194;2023-03-23T00:19:05;12.50;99.70
39875;DHT22;25547;52.530;13.194;2023-03-23T00:21:37;12.40;99.80
39875;DHT22;25547;52.530;13.194;2023-03-23T00:24:17;12.40;99.90
39875;DHT22;25547;52.530;13.194;2023-03-23T00:26:48;12.40;99.90
39875;DHT22;25547;52.530;13.194;2023-03-23T00:29:21;12.30;99.90
39875;DHT22;25547;52.530;13.194;2023-03-23T00:31:48;12.30;99.90
39875;DHT22;25547;52.530;13.194;2023-03-23T00:34:15;12.30;99.90
39875;DHT22;25547;52.530;13.194;2023-03-23T00:36:49;12.30;99.90
39875;DHT22;25547;52.530;13.194;2023-03-23T00:39:16;12.20;99.90
39875;DHT22;25547;52.530;13.194;2023-03-23T00:41:43;12.30;99.90
39875;DHT22;25547;52.530;13.194;2023-03-23T00:44:14;12.20;99.90
39875;DHT22;25547;52.530;13.194;2023-03-23T00:46:46;12.20;99.90
39875;DHT22;25547;52.530;13.194;2023-03-23T00:49:16;12.20;99.90
39875;DHT22;25547;52.530;13.194;2023-03-23T00:51:43;12.20;99.90
39875;DHT22;25547;52.530;13.194;2023-03-23T00:54:12;12.20;99.90
39875;DHT22;25547;52.530;13.194;2023-03-23T00:56:38;12.20;99.90
39875;DHT22;25547;52.530;13.194;2023-03-23T00:59:06;12.20;99.90
39875;DHT22;25547;52.530;13.194;2023-03-23T01:01:33;12.10;99.90
39875;DHT22;25547;52.530;13.194;2023-03-23T01:04:01;12.10;99.90
39875;DHT22;25547;52.530;13.194;2023-03-23T01:06:30;12.00;99.90
39875;DHT22;25547;52.530;13.194;2023-03-23T01:08:59;12.00;99.90
39875;DHT22;25547;52.530;13.194;2023-03-23T01:11:26;12.00;99.90
39875;DHT22;25547;52.530;13.194;2023-03-23T01:13:52;11.90;99.90
39875;DHT22;25547;52.530;13.194;2023-03-23T01:16:20;11.90;99.90
39875;DHT22;25547;52.530;13.194;2023-03-23T01:18:48;11.90;99.90
39875;DHT22;25547;52.530;13.194;2023-03-23T01:21:15;11.90;99.90
39875;DHT22;25547;52.530;13.194;2023-03-23T01:23:42;11.90;99.90
39875;DHT22;25547;52.530;13.194;2023-03-23T01:26:13;11.90;99.90
39875;DHT22;25547;52.530;13.194;2023-03-23T01:28:42;11.80;99.90
39875;DHT22;25547;52.530;13.194;2023-03-23T01:31:10;11.80;99.90
39875;DHT22;25547;52.530;13.194;2023-03-23T01:33:38;11.70;99.90
39875;DHT22;25547;52.530;13.194;2023-03-23T01:36:09;11.80;99.90
39875;DHT22;25547;52.530;13.194;2023-03-23T01:38:38;11.80;99.90
39875;DHT22;25547;52.530;13.194;2023-03-23T01:41:04;11.80;99.90
39875;DHT22;25547;52.530;13.194;2023-03-23T01:43:31;11.80;99.90
39875;DHT22;25547;52.530;13.194;2023-03-23T01:46:00;11.80;99.90
39875;DHT22;25547;52.530;13.194;2023-03-23T01:48:35;11.90;99.90
39875;DHT22;25547;52.530;13.194;2023-03-23T01:51:09;11.90;99.90
39875;DHT22;25547;52.530;13.194;2023-03-23T01:53:47;11.90;99.90
39875;DHT22;25547;52.530;13.194;2023-03-23T01:56:20;11.90;99.90
39875;DHT22;25547;52.530;13.194;2023-03-23T01:58:50;11.90;99.90
39875;DHT22;25547;52.530;13.194;2023-03-23T02:01:16;12.00;99.90
39875;DHT22;25547;52.530;13.194;2023-03-23T02:03:44;11.90;99.90
39875;DHT22;25547;52.530;13.194;2023-03-23T02:06:11;12.00;99.90
39875;DHT22;25547;52.530;13.194;2023-03-23T02:08:37;11.90;99.90
39875;DHT22;25547;52.530;13.194;2023-03-23T02:11:16;12.00;99.90
39875;DHT22;25547;52.530;13.194;2023-03-23T02:13:43;12.00;99.90
39875;DHT22;25547;52.530;13.194;2023-03-23T02:41:26;12.10;99.90
39875;DHT22;25547;52.530;13.194;2023-03-23T02:43:56;12.10;99.90
39875;DHT22;25547;52.530;13.194;2023-03-23T02:46:23;12.00;99.90
39875;DHT22;25547;52.530;13.194;2023-03-23T02:48:53;11.90;99.90
39875;DHT22;25547;52.530;13.194;2023-03-23T02:51:25;11.90;99.90
39875;DHT22;25547;52.530;13.194;2023-03-23T02:53:55;11.90;99.90
39875;DHT22;25547;52.530;13.194;2023-03-23T02:56:25;11.80;99.90
39875;DHT22;25547;52.530;13.194;2023-03-23T02:58:54;11.90;99.90
39875;DHT22;25547;52.530;13.194;2023-03-23T03:03:56;11.80;99.90
39875;DHT22;25547;52.530;13.194;2023-03-23T03:06:52;11.80;99.90
39875;DHT22;25547;52.530;13.194;2023-03-23T03:09:30;11.80;99.90
39875;DHT22;25547;52.530;13.194;2023-03-23T03:12:04;11.80;99.90
39875;DHT22;25547;52.530;13.194;2023-03-23T03:14:39;11.80;99.90
39875;DHT22;25547;52.530;13.194;2023-03-23T03:19:48;11.80;99.90
39875;DHT22;25547;52.530;13.194;2023-03-23T03:22:18;11.80;99.90
39875;DHT22;25547;52.530;13.194;2023-03-23T03:24:50;11.80;99.90
39875;DHT22;25547;52.530;13.194;2023-03-23T03:27:22;11.90;99.90
39875;DHT22;25547;52.530;13.194;2023-03-23T03:29:55;11.90;99.90
39875;DHT22;25547;52.530;13.194;2023-03-23T03:32:29;11.90;99.90
39875;DHT22;25547;52.530;13.194;2023-03-23T03:35:02;11.90;99.90
39875;DHT22;25547;52.530;13.194;2023-03-23T03:37:34;11.80;99.90
39875;DHT22;25547;52.530;13.194;2023-03-23T03:40:04;11.70;99.90
39875;DHT22;25547;52.530;13.194;2023-03-23T03:42:39;11.70;99.90
39875;DHT22;25547;52.530;13.194;2023-03-23T03:45:07;11.60;99.90
39875;DHT22;25547;52.530;13.194;2023-03-23T03:47:33;11.60;99.90
39875;DHT22;25547;52.530;13.194;2023-03-23T03:49:59;11.60;99.90
39875;DHT22;25547;52.530;13.194;2023-03-23T03:52:29;11.60;99.90
39875;DHT22;25547;52.530;13.194;2023-03-23T03:54:55;11.80;99.90
39875;DHT22;25547;52.530;13.194;2023-03-23T03:57:21;11.70;99.90
39875;DHT22;25547;52.530;13.194;2023-03-23T03:59:52;11.80;99.90
39875;DHT22;25547;52.530;13.194;2023-03-23T04:02:21;11.90;99.90
39875;DHT22;25547;52.530;13.194;2023-03-23T04:04:49;11.90;99.90
39875;DHT22;25547;52.530;13.194;2023-03-23T04:07:20;12.00;99.90
39875;DHT22;25547;52.530;13.194;2023-03-23T04:09:48;12.00;99.90
39875;DHT22;25547;52.530;13.194;2023-03-23T04:12:17;12.10;99.90
39875;DHT22;25547;52.530;13.194;2023-03-23T04:14:45;12.00;99.90
39875;DHT22;25547;52.530;13.194;2023-03-23T04:17:14;12.00;99.90
39875;DHT22;25547;52.530;13.194;2023-03-23T04:19:40;12.10;99.90
39875;DHT22;25547;52.530;13.194;2023-03-23T04:22:05;12.10;99.90
39875;DHT22;25547;52.530;13.194;2023-03-23T04:24:31;12.00;99.90
39875;DHT22;25547;52.530;13.194;2023-03-23T04:26:58;11.90;99.90
39875;DHT22;25547;52.530;13.194;2023-03-23T04:29:24;11.90;99.90
39875;DHT22;25547;52.530;13.194;2023-03-23T04:31:52;11.90;99.90
39875;DHT22;25547;52.530;13.194;2023-03-23T04:34:22;12.00;99.90
39875;DHT22;25547;52.530;13.194;2023-03-23T04:36:48;12.00;99.90
39875;DHT22;25547;52.530;13.194;2023-03-23T04:39:15;12.00;99.90
39875;DHT22;25547;52.530;13.194;2023-03-23T04:41:41;12.00;99.90
39875;DHT22;25547;52.530;13.194;2023-03-23T04:44:09;12.00;99.90
39875;DHT22;25547;52.530;13.194;2023-03-23T04:46:43;12.00;99.90
39875;DHT22;25547;52.530;13.194;2023-03-23T04:49:13;12.00;99.90
39875;DHT22;25547;52.530;13.194;2023-03-23T04:51:46;12.00;99.90
39875;DHT22;25547;52.530;13.194;2023-03-23T04:54:12;12.00;99.90
39875;DHT22;25547;52.530;13.194;2023-03-23T04:56:38;11.80;99.90
39875;DHT22;25547;52.530;13.194;2023-03-23T04:59:03;11.90;99.90
39875;DHT22;25547;52.530;13.194;2023-03-23T05:01:31;11.80;99.90
39875;DHT22;25547;52.530;13.194;2023-03-23T05:03:59;11.80;99.90
39875;DHT22;25547;52.530;13.194;2023-03-23T05:06:25;11.70;99.90
39875;DHT22;25547;52.530;13.194;2023-03-23T05:08:51;11.70;99.90
39875;DHT22;25547;52.530;13.194;2023-03-23T05:11:17;11.70;99.90
39875;DHT22;25547;52.530;13.194;2023-03-23T05:13:47;11.70;99.90
39875;DHT22;25547;52.530;13.194;2023-03-23T05:16:15;11.60;99.90
39875;DHT22;25547;52.530;13.194;2023-03-23T05:18:43;11.40;99.90
39875;DHT22;25547;52.530;13.194;2023-03-23T05:21:10;11.40;99.90
39875;DHT22;25547;52.530;13.194;2023-03-23T05:23:35;11.40;99.90
39875;DHT22;25547;52.530;13.194;2023-03-23T05:26:01;11.40;99.90
39875;DHT22;25547;52.530;13.194;2023-03-23T05:28:27;11.50;99.90
39875;DHT22;25547;52.530;13.194;2023-03-23T05:30:54;11.50;99.90
39875;DHT22;25547;52.530;13.194;2023-03-23T05:33:21;11.50;99.90
39875;DHT22;25547;52.530;13.194;2023-03-23T05:35:47;11.50;99.90
39875;DHT22;25547;52.530;13.194;2023-03-23T05:38:15;11.60;99.90
39875;DHT22;25547;52.530;13.194;2023-03-23T05:40:43;11.50;99.90
39875;DHT22;25547;52.530;13.194;2023-03-23T05:43:10;11.50;99.90
39875;DHT22;25547;52.530;13.194;2023-03-23T05:45:36;11.40;99.90
39875;DHT22;25547;52.530;13.194;2023-03-23T05:48:01;11.40;99.90
39875;DHT22;25547;52.530;13.194;2023-03-23T05:50:29;11.50;99.90
39875;DHT22;25547;52.530;13.194;2023-03-23T05:52:55;11.30;99.90
39875;DHT22;25547;52.530;13.194;2023-03-23T05:55:21;11.30;99.90
39875;DHT22;25547;52.530;13.194;2023-03-23T05:57:46;11.30;99.90
39875;DHT22;25547;52.530;13.194;2023-03-23T06:00:12;11.30;99.90
39875;DHT22;25547;52.530;13.194;2023-03-23T06:02:48;11.30;99.90
39875;DHT22;25547;52.530;13.194;2023-03-23T06:05:16;11.30;99.90
39875;DHT22;25547;52.530;13.194;2023-03-23T06:07:42;11.40;99.90
39875;DHT22;25547;52.530;13.194;2023-03-23T06:10:13;11.30;99.90
39875;DHT22;25547;52.530;13.194;2023-03-23T06:12:39;11.20;99.90
39875;DHT22;25547;52.530;13.194;2023-03-23T06:15:07;11.30;99.90
39875;DHT22;25547;52.530;13.194;2023-03-23T06:17:36;11.30;99.90
39875;DHT22;25547;52.530;13.194;2023-03-23T06:20:07;11.30;99.90
39875;DHT22;25547;52.530;13.194;2023-03-23T06:22:39;11.20;99.90
39875;DHT22;25547;52.530;13.194;2023-03-23T06:25:09;11.20;99.90
39875;DHT22;25547;52.530;13.194;2023-03-23T06:27:37;11.10;99.90
39875;DHT22;25547;52.530;13.194;2023-03-23T06:30:06;11.10;99.90
39875;DHT22;25547;52.530;13.194;2023-03-23T06:32:33;11.10;99.90
39875;DHT22;25547;52.530;13.194;2023-03-23T06:34:59;11.10;99.90
39875;DHT22;25547;52.530;13.194;2023-03-23T06:37:25;11.10;99.90
39875;DHT22;25547;52.530;13.194;2023-03-23T06:39:51;11.20;99.90
39875;DHT22;25547;52.530;13.194;2023-03-23T06:42:17;11.20;99.90
39875;DHT22;25547;52.530;13.194;2023-03-23T06:44:45;11.20;99.90
39875;DHT22;25547;52.530;13.194;2023-03-23T06:47:16;11.20;99.90
39875;DHT22;25547;52.530;13.194;2023-03-23T06:49:42;11.20;99.90
39875;DHT22;25547;52.530;13.194;2023-03-23T06:52:07;11.20;99.90
39875;DHT22;25547;52.530;13.194;2023-03-23T06:54:33;11.40;99.90
39875;DHT22;25547;52.530;13.194;2023-03-23T06:57:01;11.40;99.90
39875;DHT22;25547;52.530;13.194;2023-03-23T06:59:27;11.40;99.90
39875;DHT22;25547;52.530;13.194;2023-03-23T07:01:55;11.30;99.90
39875;DHT22;25547;52.530;13.194;2023-03-23T07:04:23;11.30;99.90
39875;DHT22;25547;52.530;13.194;2023-03-23T07:06:54;11.30;99.90
39875;DHT22;25547;52.530;13.194;2023-03-23T07:09:22;11.30;99.90
39875;DHT22;25547;52.530;13.194;2023-03-23T07:11:49;11.30;99.90
39875;DHT22;25547;52.530;13.194;2023-03-23T07:14:17;11.20;99.90
39875;DHT22;25547;52.530;13.194;2023-03-23T07:16:45;11.30;99.90
39875;DHT22;25547;52.530;13.194;2023-03-23T07:19:11;11.40;99.90
39875;DHT22;25547;52.530;13.194;2023-03-23T07:21:37;11.40;99.90
39875;DHT22;25547;52.530;13.194;2023-03-23T07:24:05;11.40;99.90
39875;DHT22;25547;52.530;13.194;2023-03-23T07:26:30;11.40;99.90
39875;DHT22;25547;52.530;13.194;2023-03-23T07:28:57;11.40;99.90
39875;DHT22;25547;52.530;13.194;2023-03-23T07:31:22;11.50;99.90
39875;DHT22;25547;52.530;13.194;2023-03-23T07:33:48;11.40;99.90
39875;DHT22;25547;52.530;13.194;2023-03-23T07:36:14;11.40;99.90
39875;DHT22;25547;52.530;13.194;2023-03-23T07:38:40;11.40;99.90
39875;DHT22;25547;52.530;13.194;2023-03-23T07:41:06;11.40;99.90
39875;DHT22;25547;52.530;13.194;2023-03-23T07:43:32;11.40;99.90
39875;DHT22;25547;52.530;13.194;2023-03-23T07:45:58;11.40;99.90
39875;DHT22;25547;52.530;13.194;2023-03-23T07:48:24;11.40;99.90
39875;DHT22;25547;52.530;13.194;2023-03-23T07:50:49;11.60;99.90
39875;DHT22;25547;52.530;13.194;2023-03-23T07:53:15;11.60;99.90
39875;DHT22;25547;52.530;13.194;2023-03-23T07:55:41;11.60;99.90
39875;DHT22;25547;52.530;13.194;2023-03-23T07:58:07;11.70;99.90
39875;DHT22;25547;52.530;13.194;2023-03-23T08:00:34;11.70;99.90
39875;DHT22;25547;52.530;13.194;2023-03-23T08:03:05;11.80;99.90
39875;DHT22;25547;52.530;13.194;2023-03-23T08:05:33;11.80;99.90
39875;DHT22;25547;52.530;13.194;2023-03-23T08:07:59;11.80;99.90
39875;DHT22;25547;52.530;13.194;2023-03-23T08:10:25;11.80;99.90
39875;DHT22;25547;52.530;13.194;2023-03-23T08:12:55;11.80;99.90
39875;DHT22;25547;52.530;13.194;2023-03-23T08:15:22;11.80;99.90
39875;DHT22;25547;52.530;13.194;2023-03-23T08:17:51;11.80;99.90
39875;DHT22;25547;52.530;13.194;2023-03-23T08:20:20;11.80;99.90
39875;DHT22;25547;52.530;13.194;2023-03-23T08:22:52;11.70;99.90
39875;DHT22;25547;52.530;13.194;2023-03-23T08:25:18;11.70;99.90
39875;DHT22;25547;52.530;13.194;2023-03-23T08:27:47;11.70;99.90
39875;DHT22;25547;52.530;13.194;2023-03-23T08:30:16;11.60;99.90
39875;DHT22;25547;52.530;13.194;2023-03-23T08:32:42;11.70;99.90
39875;DHT22;25547;52.530;13.194;2023-03-23T08:35:14;11.70;99.90
39875;DHT22;25547;52.530;13.194;2023-03-23T08:37:43;11.80;99.90
39875;DHT22;25547;52.530;13.194;2023-03-23T08:40:11;12.00;99.90
39875;DHT22;25547;52.530;13.194;2023-03-23T08:42:41;12.10;99.90
39875;DHT22;25547;52.530;13.194;2023-03-23T08:45:09;12.10;99.90
39875;DHT22;25547;52.530;13.194;2023-03-23T08:47:36;12.10;99.90
39875;DHT22;25547;52.530;13.194;2023-03-23T08:50:04;12.10;99.90
39875;DHT22;25547;52.530;13.194;2023-03-23T08:52:32;12.10;99.90
39875;DHT22;25547;52.530;13.194;2023-03-23T08:55:01;12.10;99.90
39875;DHT22;25547;52.530;13.194;2023-03-23T08:57:30;12.10;99.90
39875;DHT22;25547;52.530;13.194;2023-03-23T08:59:58;12.20;99.90
39875;DHT22;25547;52.530;13.194;2023-03-23T09:02:26;12.30;99.90
39875;DHT22;25547;52.530;13.194;2023-03-23T09:04:53;12.30;99.90
39875;DHT22;25547;52.530;13.194;2023-03-23T09:07:21;12.40;99.90
39875;DHT22;25547;52.530;13.194;2023-03-23T09:09:49;12.30;99.90
39875;DHT22;25547;52.530;13.194;2023-03-23T09:12:15;12.20;99.90
39875;DHT22;25547;52.530;13.194;2023-03-23T09:14:41;12.20;99.90
39875;DHT22;25547;52.530;13.194;2023-03-23T09:17:06;12.30;99.90
39875;DHT22;25547;52.530;13.194;2023-03-23T09:19:33;12.40;99.90
39875;DHT22;25547;52.530;13.194;2023-03-23T09:22:00;12.40;99.90
39875;DHT22;25547;52.530;13.194;2023-03-23T09:24:27;12.70;99.90
39875;DHT22;25547;52.530;13.194;2023-03-23T09:26:57;12.90;99.90
39875;DHT22;25547;52.530;13.194;2023-03-23T09:29:24;13.20;99.90
39875;DHT22;25547;52.530;13.194;2023-03-23T09:31:55;13.30;99.90
39875;DHT22;25547;52.530;13.194;2023-03-23T09:34:23;13.50;99.90
39875;DHT22;25547;52.530;13.194;2023-03-23T09:36:49;13.60;99.90
39875;DHT22;25547;52.530;13.194;2023-03-23T09:39:15;13.60;99.90
39875;DHT22;25547;52.530;13.194;2023-03-23T09:44:36;13.90;99.90
39875;DHT22;25547;52.530;13.194;2023-03-23T09:49:57;13.90;99.90
39875;DHT22;25547;52.530;13.194;2023-03-23T09:52:41;14.00;99.90
39875;DHT22;25547;52.530;13.194;2023-03-23T09:55:18;13.80;99.90
39875;DHT22;25547;52.530;13.194;2023-03-23T09:57:50;13.80;99.90
39875;DHT22;25547;52.530;13.194;2023-03-23T10:00:29;13.80;99.90
39875;DHT22;25547;52.530;13.194;2023-03-23T10:03:19;13.80;99.90
39875;DHT22;25547;52.530;13.194;2023-03-23T10:05:48;13.80;99.90
39875;DHT22;25547;52.530;13.194;2023-03-23T10:08:26;13.70;99.90
39875;DHT22;25547;52.530;13.194;2023-03-23T10:16:29;13.60;99.90
39875;DHT22;25547;52.530;13.194;2023-03-23T10:19:23;13.70;99.90
39875;DHT22;25547;52.530;13.194;2023-03-23T10:22:01;13.80;99.90
39875;DHT22;25547;52.530;13.194;2023-03-23T10:24:40;13.80;99.90
39875;DHT22;25547;52.530;13.194;2023-03-23T10:27:24;13.90;99.90
39875;DHT22;25547;52.530;13.194;2023-03-23T10:30:15;14.10;99.90
39875;DHT22;25547;52.530;13.194;2023-03-23T10:32:58;14.10;99.90
39875;DHT22;25547;52.530;13.194;2023-03-23T10:35:31;14.10;99.90
39875;DHT22;25547;52.530;13.194;2023-03-23T10:38:01;14.20;99.90
39875;DHT22;25547;52.530;13.194;2023-03-23T10:40:29;14.30;99.90
39875;DHT22;25547;52.530;13.194;2023-03-23T10:42:59;14.30;99.90
39875;DHT22;25547;52.530;13.194;2023-03-23T10:45:28;14.30;99.90
39875;DHT22;25547;52.530;13.194;2023-03-23T10:50:48;14.20;99.90
39875;DHT22;25547;52.530;13.194;2023-03-23T10:53:23;14.20;99.90
39875;DHT22;25547;52.530;13.194;2023-03-23T10:55:55;14.20;99.90
39875;DHT22;25547;52.530;13.194;2023-03-23T10:58:25;14.20;99.90
39875;DHT22;25547;52.530;13.194;2023-03-23T11:00:56;14.10;99.90
39875;DHT22;25547;52.530;13.194;2023-03-23T11:06:05;14.00;99.90
39875;DHT22;25547;52.530;13.194;2023-03-23T11:08:55;14.10;99.90
39875;DHT22;25547;52.530;13.194;2023-03-23T11:11:32;14.20;99.90
39875;DHT22;25547;52.530;13.194;2023-03-23T11:14:01;14.20;99.90
39875;DHT22;25547;52.530;13.194;2023-03-23T11:16:33;14.20;99.90
39875;DHT22;25547;52.530;13.194;2023-03-23T11:19:00;14.00;99.90
39875;DHT22;25547;52.530;13.194;2023-03-23T11:21:39;14.10;99.90
39875;DHT22;25547;52.530;13.194;2023-03-23T11:24:07;14.20;99.90
39875;DHT22;25547;52.530;13.194;2023-03-23T11:26:35;14.30;99.90
39875;DHT22;25547;52.530;13.194;2023-03-23T11:31:44;14.40;99.90
39875;DHT22;25547;52.530;13.194;2023-03-23T11:34:14;14.60;99.90
39875;DHT22;25547;52.530;13.194;2023-03-23T11:36:47;14.60;99.90
39875;DHT22;25547;52.530;13.194;2023-03-23T11:39:34;14.70;99.90
39875;DHT22;25547;52.530;13.194;2023-03-23T11:42:02;14.70;99.90
39875;DHT22;25547;52.530;13.194;2023-03-23T11:44:42;14.70;99.90
39875;DHT22;25547;52.530;13.194;2023-03-23T11:50:25;14.80;99.90
39875;DHT22;25547;52.530;13.194;2023-03-23T11:58:23;14.70;99.90
39875;DHT22;25547;52.530;13.194;2023-03-23T12:01:16;14.90;99.90
39875;DHT22;25547;52.530;13.194;2023-03-23T12:06:35;15.00;99.90
39875;DHT22;25547;52.530;13.194;2023-03-23T12:23:26;15.00;99.90
39875;DHT22;25547;52.530;13.194;2023-03-23T12:26:14;15.00;99.90
39875;DHT22;25547;52.530;13.194;2023-03-23T12:50:42;15.30;99.90
39875;DHT22;25547;52.530;13.194;2023-03-23T12:58:36;15.40;99.90
39875;DHT22;25547;52.530;13.194;2023-03-23T13:01:19;15.50;99.90
39875;DHT22;25547;52.530;13.194;2023-03-23T13:04:16;15.70;99.90
39875;DHT22;25547;52.530;13.194;2023-03-23T13:06:45;16.00;99.90
39875;DHT22;25547;52.530;13.194;2023-03-23T13:12:08;16.00;99.90
39875;DHT22;25547;52.530;13.194;2023-03-23T13:17:26;15.90;99.90
39875;DHT22;25547;52.530;13.194;2023-03-23T13:23:05;15.70;99.90
39875;DHT22;25547;52.530;13.194;2023-03-23T13:28:15;15.70;99.90
39875;DHT22;25547;52.530;13.194;2023-03-23T13:30:40;15.80;99.90
39875;DHT22;25547;52.530;13.194;2023-03-23T13:33:12;15.80;99.90
39875;DHT22;25547;52.530;13.194;2023-03-23T13:35:41;15.80;99.90
39875;DHT22;25547;52.530;13.194;2023-03-23T13:38:27;15.80;99.90
39875;DHT22;25547;52.530;13.194;2023-03-23T13:40:56;15.80;99.90
39875;DHT22;25547;52.530;13.194;2023-03-23T13:43:34;15.80;99.90
39875;DHT22;25547;52.530;13.194;2023-03-23T13:46:27;15.80;99.90
39875;DHT22;25547;52.530;13.194;2023-03-23T13:49:18;15.80;99.90
39875;DHT22;25547;52.530;13.194;2023-03-23T13:52:14;15.70;99.20
39875;DHT22;25547;52.530;13.194;2023-03-23T13:54:42;15.80;99.40
39875;DHT22;25547;52.530;13.194;2023-03-23T13:57:38;16.00;99.10
39875;DHT22;25547;52.530;13.194;2023-03-23T14:10:59;16.10;97.70
39875;DHT22;25547;52.530;13.194;2023-03-23T14:16:41;16.10;97.00
39875;DHT22;25547;52.530;13.194;2023-03-23T14:19:36;16.10;97.00
39875;DHT22;25547;52.530;13.194;2023-03-23T14:22:03;15.90;97.00
39875;DHT22;25547;52.530;13.194;2023-03-23T14:24:32;15.90;97.00
39875;DHT22;25547;52.530;13.194;2023-03-23T14:27:22;15.80;97.20
39875;DHT22;25547;52.530;13.194;2023-03-23T14:30:08;15.90;96.80
39875;DHT22;25547;52.530;13.194;2023-03-23T14:32:34;16.20;96.30
39875;DHT22;25547;52.530;13.194;2023-03-23T14:35:26;16.20;96.00
39875;DHT22;25547;52.530;13.194;2023-03-23T14:37:53;16.10;96.20
39875;DHT22;25547;52.530;13.194;2023-03-23T14:40:19;16.10;96.10
39875;DHT22;25547;52.530;13.194;2023-03-23T14:42:46;16.20;96.00
39875;DHT22;25547;52.530;13.194;2023-03-23T14:45:15;16.30;95.60
39875;DHT22;25547;52.530;13.194;2023-03-23T14:47:47;16.20;95.70
39875;DHT22;25547;52.530;13.194;2023-03-23T14:52:51;16.00;95.30
39875;DHT22;25547;52.530;13.194;2023-03-23T14:55:19;15.90;95.50
39875;DHT22;25547;52.530;13.194;2023-03-23T14:57:47;15.90;95.70
39875;DHT22;25547;52.530;13.194;2023-03-23T15:00:22;15.90;95.60
39875;DHT22;25547;52.530;13.194;2023-03-23T15:02:54;15.90;95.60
39875;DHT22;25547;52.530;13.194;2023-03-23T15:05:32;15.90;95.90
39875;DHT22;25547;52.530;13.194;2023-03-23T15:08:11;15.80;96.10
39875;DHT22;25547;52.530;13.194;2023-03-23T15:10:37;15.80;95.60
39875;DHT22;25547;52.530;13.194;2023-03-23T15:13:04;15.80;95.70
39875;DHT22;25547;52.530;13.194;2023-03-23T15:15:31;15.80;95.20
39875;DHT22;25547;52.530;13.194;2023-03-23T15:17:57;15.80;95.30
39875;DHT22;25547;52.530;13.194;2023-03-23T15:20:28;15.80;95.40
39875;DHT22;25547;52.530;13.194;2023-03-23T15:22:54;15.80;95.60
39875;DHT22;25547;52.530;13.194;2023-03-23T15:25:28;15.80;95.50
39875;DHT22;25547;52.530;13.194;2023-03-23T15:27:56;15.80;95.50
39875;DHT22;25547;52.530;13.194;2023-03-23T15:32:47;15.80;95.70
39875;DHT22;25547;52.530;13.194;2023-03-23T15:35:23;15.70;95.90
39875;DHT22;25547;52.530;13.194;2023-03-23T15:37:57;15.70;95.80
39875;DHT22;25547;52.530;13.194;2023-03-23T15:40:25;15.60;96.50
39875;DHT22;25547;52.530;13.194;2023-03-23T15:43:22;15.50;96.90
39875;DHT22;25547;52.530;13.194;2023-03-23T15:46:20;15.50;96.70
39875;DHT22;25547;52.530;13.194;2023-03-23T15:48:50;15.60;96.70
39875;DHT22;25547;52.530;13.194;2023-03-23T15:51:18;15.60;96.80
39875;DHT22;25547;52.530;13.194;2023-03-23T15:53:44;15.60;96.70
39875;DHT22;25547;52.530;13.194;2023-03-23T15:56:12;15.60;96.40
39875;DHT22;25547;52.530;13.194;2023-03-23T15:58:40;15.60;96.20
39875;DHT22;25547;52.530;13.194;2023-03-23T16:01:13;15.60;96.00
39875;DHT22;25547;52.530;13.194;2023-03-23T16:03:56;15.50;95.90
39875;DHT22;25547;52.530;13.194;2023-03-23T16:06:30;15.50;95.00
39875;DHT22;25547;52.530;13.194;2023-03-23T16:08:56;15.50;94.80
39875;DHT22;25547;52.530;13.194;2023-03-23T16:11:24;15.50;94.60
39875;DHT22;25547;52.530;13.194;2023-03-23T16:13:50;15.50;94.20
39875;DHT22;25547;52.530;13.194;2023-03-23T16:16:34;15.50;94.00
39875;DHT22;25547;52.530;13.194;2023-03-23T16:19:03;15.60;93.80
39875;DHT22;25547;52.530;13.194;2023-03-23T16:21:32;15.40;95.40
39875;DHT22;25547;52.530;13.194;2023-03-23T16:23:58;15.10;97.60
39875;DHT22;25547;52.530;13.194;2023-03-23T16:26:26;14.90;99.10
39875;DHT22;25547;52.530;13.194;2023-03-23T16:28:52;14.60;99.90
39875;DHT22;25547;52.530;13.194;2023-03-23T16:31:17;14.60;99.90
39875;DHT22;25547;52.530;13.194;2023-03-23T16:33:43;14.50;99.90
39875;DHT22;25547;52.530;13.194;2023-03-23T16:36:11;14.50;99.90
39875;DHT22;25547;52.530;13.194;2023-03-23T16:38:38;14.40;99.90
39875;DHT22;25547;52.530;13.194;2023-03-23T16:41:06;14.40;99.90
39875;DHT22;25547;52.530;13.194;2023-03-23T16:43:33;14.30;99.90
39875;DHT22;25547;52.530;13.194;2023-03-23T16:45:59;14.20;99.90
39875;DHT22;25547;52.530;13.194;2023-03-23T16:48:24;14.20;99.90
39875;DHT22;25547;52.530;13.194;2023-03-23T16:50:51;14.10;99.90
39875;DHT22;25547;52.530;13.194;2023-03-23T16:53:19;14.00;99.90
39875;DHT22;25547;52.530;13.194;2023-03-23T16:55:49;14.00;99.90
39875;DHT22;25547;52.530;13.194;2023-03-23T16:58:15;13.90;99.90
39875;DHT22;25547;52.530;13.194;2023-03-23T17:00:42;13.80;99.90
39875;DHT22;25547;52.530;13.194;2023-03-23T17:03:10;13.80;99.90
39875;DHT22;25547;52.530;13.194;2023-03-23T17:05:37;13.70;99.90
39875;DHT22;25547;52.530;13.194;2023-03-23T17:08:05;13.70;99.90
39875;DHT22;25547;52.530;13.194;2023-03-23T17:10:31;13.60;99.90
39875;DHT22;25547;52.530;13.194;2023-03-23T17:13:00;13.60;99.90
39875;DHT22;25547;52.530;13.194;2023-03-23T17:15:26;13.60;99.90
39875;DHT22;25547;52.530;13.194;2023-03-23T17:17:52;13.60;99.90
39875;DHT22;25547;52.530;13.194;2023-03-23T17:20:19;13.50;99.90
39875;DHT22;25547;52.530;13.194;2023-03-23T17:22:45;13.50;99.90
39875;DHT22;25547;52.530;13.194;2023-03-23T17:25:10;13.50;99.90
39875;DHT22;25547;52.530;13.194;2023-03-23T17:27:37;13.40;99.90
39875;DHT22;25547;52.530;13.194;2023-03-23T17:30:05;13.40;99.90
39875;DHT22;25547;52.530;13.194;2023-03-23T17:32:31;13.40;99.90
39875;DHT22;25547;52.530;13.194;2023-03-23T17:34:57;13.30;99.90
39875;DHT22;25547;52.530;13.194;2023-03-23T17:37:25;13.10;99.90
39875;DHT22;25547;52.530;13.194;2023-03-23T17:39:53;13.00;99.90
39875;DHT22;25547;52.530;13.194;2023-03-23T17:42:24;13.00;99.90
39875;DHT22;25547;52.530;13.194;2023-03-23T17:44:49;12.90;99.90
39875;DHT22;25547;52.530;13.194;2023-03-23T17:47:15;12.80;99.90